Weather at Katama Airpark

Public forecast

Using degrees Fahrenheit for public forecast. Weather courtesy of forecast.io.

Closest aviation weather report (METAR) to Katama Airpark

Closest report is Martha's Vineyard Airport, 4.6 nm (8.4 km) WNW. Retrieved 2021/06/12 21:24 UTC (0 seconds ago):

KMVY 122124Z 10SM SCT016 17/14 RMK AO2 T01720139

Closest aviation forecast (TAF) to Katama Airpark

Closest forecast is Cape Cod Coast Guard Air Station, 18.0 nm (33.3 km) N. Retrieved 2021/06/12 18:36 UTC (3 hours ago):

TAF KFMH 121733Z 1218/1318 06004KT P6SM BKN011 OVC025 FM122000 07004KT P6SM SCT025 SCT250 FM122300 16005KT P6SM FEW025 SCT250 FM130500 22003KT 5SM BR SCT008 FM131200 24005KT 3SM BR FEW008 FM131400 23011KT P6SM FEW250